Time;durP1;ratioP1;P1;durP2;ratioP2;P2;SDS_P1;SDS_P2;PMS_P1;PMS_P2;Temp;Humidity;BMP_temperature;BMP_pressure;BME280_temperature;BME280_humidity;BME280_pressure;Samples;Min_cycle;Max_cycle;Signal;HPM_P1;HPM_P2
2023/03/01 00:03:00;;;;;;;7.65;4.45;;;;;;;;;;10409683;28;20032;-57
2023/03/01 00:08:01;;;;;;;5.47;4.03;;;;;;;;;;10410690;28;20080;-57
2023/03/01 00:13:02;;;;;;;9.60;4.03;;;;;;;;;;10409072;28;20029;-55
2023/03/01 00:18:02;;;;;;;6.13;3.47;;;;;;;;;;10409057;28;20057;-55
2023/03/01 00:23:03;;;;;;;4.68;3.35;;;;;;;;;;10409233;28;20052;-54
2023/03/01 00:28:03;;;;;;;4.63;3.42;;;;;;;;;;10408981;28;20032;-53
2023/03/01 00:33:04;;;;;;;7.72;3.38;;;;;;;;;;10408814;28;20107;-49
2023/03/01 00:38:05;;;;;;;5.43;3.53;;;;;;;;;;10409402;28;20064;-58
2023/03/01 00:43:06;;;;;;;6.90;3.67;;;;;;;;;;10408883;28;20045;-58
2023/03/01 00:48:07;;;;;;;5.40;3.80;;;;;;;;;;10408584;28;20029;-57
2023/03/01 00:53:08;;;;;;;5.45;3.45;;;;;;;;;;10408733;28;20059;-57
2023/03/01 00:58:09;;;;;;;7.68;3.75;;;;;;;;;;10408241;28;20029;-57
2023/03/01 01:03:09;;;;;;;4.75;3.20;;;;;;;;;;10408278;28;20025;-56
2023/03/01 01:08:10;;;;;;;5.47;3.33;;;;;;;;;;10408572;28;20112;-57
2023/03/01 01:13:11;;;;;;;5.90;3.10;;;;;;;;;;10408281;28;20037;-56
2023/03/01 01:18:12;;;;;;;6.15;3.88;;;;;;;;;;10407957;28;20025;-56
2023/03/01 01:23:12;;;;;;;6.50;3.40;;;;;;;;;;10407916;28;20143;-57
2023/03/01 01:28:13;;;;;;;4.32;3.35;;;;;;;;;;10410074;28;20033;-57
2023/03/01 01:33:13;;;;;;;4.13;3.33;;;;;;;;;;10415884;28;20044;-57
2023/03/01 01:38:14;;;;;;;5.30;3.80;;;;;;;;;;10397621;28;20026;-57
2023/03/01 01:43:37;;;;;;;5.65;3.70;;;;;;;;;;10414945;28;20047;-57
2023/03/01 01:48:43;;;;;;;6.15;3.50;;;;;;;;;;10415169;28;20064;-57
2023/03/01 01:53:47;;;;;;;4.05;3.50;;;;;;;;;;10415487;28;20083;-51
2023/03/01 01:58:49;;;;;;;7.32;3.70;;;;;;;;;;10397377;28;20091;-50
2023/03/01 02:03:50;;;;;;;4.68;3.03;;;;;;;;;;10397430;28;20072;-57
2023/03/01 02:08:52;;;;;;;4.35;3.58;;;;;;;;;;10414377;28;20416;-55
2023/03/01 02:13:54;;;;;;;5.18;3.50;;;;;;;;;;10414398;28;20039;-54
2023/03/01 02:18:55;;;;;;;5.60;3.22;;;;;;;;;;10414283;28;20037;-52
2023/03/01 02:23:58;;;;;;;6.28;3.72;;;;;;;;;;10414186;28;20021;-52
2023/03/01 02:28:59;;;;;;;4.90;3.35;;;;;;;;;;10396637;28;20059;-53
2023/03/01 02:34:04;;;;;;;3.95;3.20;;;;;;;;;;10413040;28;20033;-54
2023/03/01 02:39:14;;;;;;;4.15;3.15;;;;;;;;;;10395154;28;20086;-56
2023/03/01 02:44:15;;;;;;;4.20;3.20;;;;;;;;;;10412983;28;20049;-53
2023/03/01 02:49:22;;;;;;;4.93;3.38;;;;;;;;;;10412834;28;20056;-56
2023/03/01 02:54:36;;;;;;;4.50;3.53;;;;;;;;;;10413432;28;20108;-53
2023/03/01 02:59:42;;;;;;;4.63;3.30;;;;;;;;;;10395465;28;20033;-56
2023/03/01 03:04:42;;;;;;;6.43;3.40;;;;;;;;;;10412146;28;20469;-55
2023/03/01 03:09:43;;;;;;;8.57;3.25;;;;;;;;;;10411747;28;20025;-56
2023/03/01 03:14:43;;;;;;;4.60;3.47;;;;;;;;;;10412212;28;20033;-54
2023/03/01 03:19:45;;;;;;;3.80;3.08;;;;;;;;;;10411586;28;20029;-53
2023/03/01 03:24:45;;;;;;;5.03;3.47;;;;;;;;;;10411808;28;20113;-48
2023/03/01 03:29:46;;;;;;;7.45;3.65;;;;;;;;;;10411574;28;20025;-49
2023/03/01 03:34:48;;;;;;;6.13;3.15;;;;;;;;;;10410131;28;20543;-52
2023/03/01 03:39:48;;;;;;;5.40;3.40;;;;;;;;;;10411189;28;20041;-52
2023/03/01 03:44:49;;;;;;;4.53;3.30;;;;;;;;;;10410337;28;20486;-53
2023/03/01 03:49:49;;;;;;;3.95;3.03;;;;;;;;;;10410920;28;20045;-53
2023/03/01 03:54:50;;;;;;;4.68;3.10;;;;;;;;;;10410143;28;20025;-50
2023/03/01 03:59:50;;;;;;;4.95;3.55;;;;;;;;;;10409998;28;20030;-52
2023/03/01 04:04:51;;;;;;;4.00;3.50;;;;;;;;;;10392357;28;20025;-54
2023/03/01 04:09:52;;;;;;;4.93;2.85;;;;;;;;;;10409684;28;20026;-56
2023/03/01 04:14:53;;;;;;;3.15;2.85;;;;;;;;;;10409483;28;20029;-53
2023/03/01 04:19:53;;;;;;;5.43;3.10;;;;;;;;;;10409326;28;20053;-49
2023/03/01 04:24:55;;;;;;;3.47;3.00;;;;;;;;;;10409244;28;20021;-54
2023/03/01 04:29:55;;;;;;;5.13;2.85;;;;;;;;;;10409524;28;20026;-56
2023/03/01 04:34:56;;;;;;;7.32;3.50;;;;;;;;;;10408895;28;20092;-49
2023/03/01 04:39:57;;;;;;;3.67;2.78;;;;;;;;;;10408841;28;20232;-53
2023/03/01 04:44:57;;;;;;;3.45;3.10;;;;;;;;;;10408554;28;20046;-54
2023/03/01 04:49:58;;;;;;;2.90;2.60;;;;;;;;;;10409213;28;20041;-53
2023/03/01 04:54:58;;;;;;;5.30;3.13;;;;;;;;;;10408427;28;20033;-55
2023/03/01 04:59:59;;;;;;;3.53;2.90;;;;;;;;;;10408472;28;20017;-55
2023/03/01 05:04:59;;;;;;;3.25;2.75;;;;;;;;;;10413666;28;20026;-56
2023/03/01 05:10:00;;;;;;;4.85;3.00;;;;;;;;;;10415232;28;20405;-56
2023/03/01 05:15:06;;;;;;;3.03;2.53;;;;;;;;;;10416248;28;20436;-56
2023/03/01 05:20:08;;;;;;;3.78;2.60;;;;;;;;;;10416741;28;20053;-55
2023/03/01 05:25:09;;;;;;;3.80;2.72;;;;;;;;;;10416046;28;20369;-57
2023/03/01 05:30:13;;;;;;;3.90;2.92;;;;;;;;;;10416351;28;20036;-57
2023/03/01 05:35:17;;;;;;;5.55;3.05;;;;;;;;;;10415551;28;20057;-57
2023/03/01 05:40:21;;;;;;;4.05;2.97;;;;;;;;;;10415306;28;20048;-56
2023/03/01 05:45:24;;;;;;;4.10;3.05;;;;;;;;;;10415259;28;20091;-55
2023/03/01 05:50:28;;;;;;;3.60;2.50;;;;;;;;;;10415029;28;20057;-54
2023/03/01 05:55:30;;;;;;;3.97;2.60;;;;;;;;;;10415178;28;20056;-57
2023/03/01 06:00:32;;;;;;;8.15;2.83;;;;;;;;;;10414961;28;20026;-54
2023/03/01 06:05:32;;;;;;;3.75;3.00;;;;;;;;;;10414269;28;20052;-53
2023/03/01 06:10:33;;;;;;;2.95;2.45;;;;;;;;;;10414647;28;20037;-49
2023/03/01 06:15:34;;;;;;;2.92;2.47;;;;;;;;;;10412241;28;20050;-55
2023/03/01 06:20:35;;;;;;;4.25;2.97;;;;;;;;;;10414321;28;20029;-57
2023/03/01 06:25:37;;;;;;;7.60;2.97;;;;;;;;;;10414192;28;20037;-54
2023/03/01 06:30:37;;;;;;;7.32;2.80;;;;;;;;;;10414018;28;20106;-56
2023/03/01 06:35:38;;;;;;;14.70;2.80;;;;;;;;;;10413165;28;20033;-57
2023/03/01 06:40:38;;;;;;;5.78;3.38;;;;;;;;;;10413337;28;20037;-55
2023/03/01 06:45:39;;;;;;;6.28;2.67;;;;;;;;;;10412319;28;20052;-57
2023/03/01 06:50:39;;;;;;;9.27;3.10;;;;;;;;;;10412546;28;20353;-58
2023/03/01 06:55:41;;;;;;;6.28;3.97;;;;;;;;;;10412205;28;20034;-67
2023/03/01 07:00:42;;;;;;;6.60;2.70;;;;;;;;;;10411586;28;20481;-61
2023/03/01 07:05:44;;;;;;;4.80;2.80;;;;;;;;;;10409959;28;20025;-61
2023/03/01 07:10:45;;;;;;;4.90;2.88;;;;;;;;;;10411379;28;20029;-61
2023/03/01 07:15:45;;;;;;;8.23;3.97;;;;;;;;;;10411650;28;20086;-61
2023/03/01 07:20:46;;;;;;;12.70;3.03;;;;;;;;;;10411334;28;20032;-62
2023/03/01 07:25:54;;;;;;;9.18;3.65;;;;;;;;;;10411978;28;20056;-62
2023/03/01 07:30:54;;;;;;;9.05;2.72;;;;;;;;;;10412126;28;20049;-67
2023/03/01 07:36:03;;;;;;;7.05;3.20;;;;;;;;;;10410827;28;20056;-61
2023/03/01 07:41:05;;;;;;;;;;;;;;;;;;10411675;28;20029;-61
2023/03/01 07:46:06;;;;;;;6.45;3.47;;;;;;;;;;10410117;28;20010;-63
2023/03/01 07:51:07;;;;;;;6.75;2.95;;;;;;;;;;10410792;28;20096;-61
2023/03/01 07:56:11;;;;;;;6.32;3.50;;;;;;;;;;10410345;28;20261;-61
2023/03/01 08:01:16;;;;;;;5.38;3.17;;;;;;;;;;10409804;28;20033;-61
2023/03/01 08:06:17;;;;;;;5.43;3.17;;;;;;;;;;10409968;28;20176;-60
2023/03/01 08:11:18;;;;;;;7.90;3.10;;;;;;;;;;10410042;28;20032;-61
2023/03/01 08:16:18;;;;;;;5.63;3.03;;;;;;;;;;10410618;28;20033;-61
2023/03/01 08:21:19;;;;;;;6.63;2.80;;;;;;;;;;10409199;28;20037;-61
2023/03/01 08:26:21;;;;;;;4.25;2.97;;;;;;;;;;10409599;28;20033;-61
2023/03/01 08:31:30;;;;;;;6.57;2.83;;;;;;;;;;10409003;28;20025;-61
2023/03/01 08:36:36;;;;;;;6.88;3.22;;;;;;;;;;10409325;28;20056;-62
2023/03/01 08:41:38;;;;;;;5.57;3.40;;;;;;;;;;10408883;28;20053;-61
2023/03/01 08:46:41;;;;;;;4.20;3.17;;;;;;;;;;10408634;28;20045;-62
2023/03/01 08:51:43;;;;;;;4.35;3.10;;;;;;;;;;10408512;28;20107;-61
2023/03/01 08:56:45;;;;;;;5.68;2.95;;;;;;;;;;10408988;28;20033;-61
2023/03/01 09:01:45;;;;;;;5.95;3.17;;;;;;;;;;10408034;28;20481;-61
2023/03/01 09:06:46;;;;;;;8.30;2.88;;;;;;;;;;10408404;28;20040;-61
2023/03/01 09:11:46;;;;;;;7.10;3.22;;;;;;;;;;10408033;28;20052;-61
2023/03/01 09:16:47;;;;;;;7.68;3.15;;;;;;;;;;10408165;28;20025;-61
2023/03/01 09:21:54;;;;;;;5.03;3.05;;;;;;;;;;10408003;28;20469;-65
2023/03/01 09:26:56;;;;;;;6.60;2.92;;;;;;;;;;10408062;28;20022;-65
2023/03/01 09:31:56;;;;;;;7.35;2.85;;;;;;;;;;10407810;28;20033;-61
2023/03/01 09:36:58;;;;;;;6.65;3.05;;;;;;;;;;10408157;28;20044;-61
2023/03/01 09:42:04;;;;;;;5.78;3.15;;;;;;;;;;10408010;28;20026;-61
2023/03/01 09:47:09;;;;;;;4.95;3.00;;;;;;;;;;10389781;28;20111;-61
2023/03/01 09:52:33;;;;;;;5.47;3.10;;;;;;;;;;10413938;28;20056;-61
2023/03/01 09:57:46;;;;;;;7.70;3.03;;;;;;;;;;10398258;28;20068;-64
2023/03/01 10:03:02;;;;;;;5.47;3.00;;;;;;;;;;10398185;28;20029;-59
2023/03/01 10:08:26;;;;;;;8.48;3.40;;;;;;;;;;10414963;28;20033;-61
2023/03/01 10:14:04;;;;;;;6.53;2.95;;;;;;;;;;10407044;28;20042;-66
2023/03/01 10:19:06;;;;;;;5.23;2.53;;;;;;;;;;10415085;28;20026;-61
2023/03/01 10:24:20;;;;;;;6.22;3.35;;;;;;;;;;10414273;28;20025;-61
2023/03/01 10:29:29;;;;;;;6.40;3.05;;;;;;;;;;10406253;28;20061;-61
2023/03/01 10:34:34;;;;;;;5.28;2.92;;;;;;;;;;10413451;28;20099;-61
2023/03/01 10:39:35;;;;;;;6.03;2.90;;;;;;;;;;10413662;28;20033;-61
2023/03/01 10:44:48;;;;;;;2.80;2.50;;;;;;;;;;10413216;28;20049;-61
2023/03/01 10:49:52;;;;;;;3.45;2.75;;;;;;;;;;10412636;28;20030;-61
2023/03/01 10:55:16;;;;;;;2.92;2.60;;;;;;;;;;10412744;28;20072;-61
2023/03/01 11:00:24;;;;;;;4.50;2.85;;;;;;;;;;10386390;28;20480;-61
2023/03/01 11:05:28;;;;;;;3.45;2.70;;;;;;;;;;10411614;28;20057;-61
2023/03/01 11:10:35;;;;;;;4.18;3.00;;;;;;;;;;10411946;28;20389;-59
2023/03/01 11:15:36;;;;;;;4.28;3.08;;;;;;;;;;10411954;28;20025;-59
2023/03/01 11:20:38;;;;;;;7.13;2.72;;;;;;;;;;10411562;28;20030;-60
2023/03/01 11:26:05;;;;;;;3.72;2.72;;;;;;;;;;10411497;28;20033;-61
2023/03/01 11:31:14;;;;;;;3.20;2.45;;;;;;;;;;10389441;28;20034;-61
2023/03/01 11:36:53;;;;;;;3.50;2.70;;;;;;;;;;10394385;28;20025;-61
2023/03/01 11:42:12;;;;;;;7.43;2.60;;;;;;;;;;10392725;28;20045;-61
2023/03/01 11:47:50;;;;;;;6.18;2.92;;;;;;;;;;10402714;28;20046;-61
2023/03/01 11:53:06;;;;;;;7.75;2.50;;;;;;;;;;10395386;28;20575;-61
2023/03/01 11:58:38;;;;;;;7.93;3.40;;;;;;;;;;10410580;28;20025;-61
2023/03/01 12:04:16;;;;;;;9.38;3.10;;;;;;;;;;10390008;28;20045;-61
2023/03/01 12:09:38;;;;;;;5.22;2.80;;;;;;;;;;10409899;28;20385;-61
2023/03/01 12:14:59;;;;;;;13.93;2.80;;;;;;;;;;10408164;28;20168;-61
2023/03/01 12:20:24;;;;;;;6.05;2.83;;;;;;;;;;10409187;28;20043;-61
2023/03/01 12:25:44;;;;;;;10.50;3.00;;;;;;;;;;10386026;28;20108;-61
2023/03/01 12:31:16;;;;;;;9.32;3.00;;;;;;;;;;10392124;28;20404;-61
2023/03/01 12:36:19;;;;;;;11.60;2.97;;;;;;;;;;10402161;28;20107;-61
2023/03/01 12:41:43;;;;;;;6.25;2.92;;;;;;;;;;10408600;28;20433;-62
2023/03/01 12:47:25;;;;;;;14.38;2.92;;;;;;;;;;10392247;28;20072;-61
2023/03/01 12:52:46;;;;;;;11.35;2.85;;;;;;;;;;10408622;28;20036;-61
2023/03/01 12:58:02;;;;;;;6.03;2.88;;;;;;;;;;10391220;28;20029;-61
2023/03/01 13:03:23;;;;;;;5.82;3.22;;;;;;;;;;10391530;28;20075;-61
2023/03/01 13:08:52;;;;;;;9.40;3.38;;;;;;;;;;10390586;28;20025;-61
2023/03/01 13:14:22;;;;;;;8.43;3.13;;;;;;;;;;10363169;28;20080;-61
2023/03/01 13:19:25;;;;;;;10.32;3.13;;;;;;;;;;10408159;28;20037;-63
2023/03/01 13:24:33;;;;;;;7.93;3.30;;;;;;;;;;10410134;28;20421;-61
2023/03/01 13:29:53;;;;;;;9.57;3.13;;;;;;;;;;10399073;28;20029;-61
2023/03/01 13:35:03;;;;;;;5.07;3.03;;;;;;;;;;10415561;28;20034;-61
2023/03/01 13:40:48;;;;;;;11.27;3.28;;;;;;;;;;10415281;28;20029;-61
2023/03/01 13:45:49;;;;;;;10.52;3.00;;;;;;;;;;10413702;28;20578;-61
2023/03/01 13:51:03;;;;;;;9.77;3.20;;;;;;;;;;10414317;28;20026;-61
2023/03/01 13:56:14;;;;;;;7.47;3.30;;;;;;;;;;10413717;28;20068;-63
2023/03/01 14:01:31;;;;;;;6.72;3.08;;;;;;;;;;10414235;28;20416;-61
2023/03/01 14:06:35;;;;;;;12.15;3.42;;;;;;;;;;10415206;28;20250;-61
2023/03/01 14:11:38;;;;;;;12.20;3.83;;;;;;;;;;10414183;28;20021;-62
2023/03/01 14:17:29;;;;;;;4.25;2.78;;;;;;;;;;10414050;28;20037;-61
2023/03/01 14:22:34;;;;;;;7.10;3.15;;;;;;;;;;10382318;28;20053;-62
2023/03/01 14:27:42;;;;;;;10.68;3.20;;;;;;;;;;10396441;28;20492;-62
2023/03/01 14:32:51;;;;;;;4.00;2.33;;;;;;;;;;10396102;28;20025;-62
2023/03/01 14:37:52;;;;;;;9.10;3.33;;;;;;;;;;10411896;28;20033;-62
2023/03/01 14:42:55;;;;;;;5.45;3.05;;;;;;;;;;10411949;28;20061;-62
2023/03/01 14:47:59;;;;;;;7.75;3.30;;;;;;;;;;10395928;28;20025;-67
2023/03/01 14:53:03;;;;;;;6.60;3.28;;;;;;;;;;10395591;28;20065;-61
2023/03/01 14:58:06;;;;;;;5.18;3.42;;;;;;;;;;10412659;28;20121;-69
2023/03/01 15:03:26;;;;;;;11.55;3.15;;;;;;;;;;10412449;28;20108;-62
2023/03/01 15:08:32;;;;;;;6.45;3.05;;;;;;;;;;10413033;28;20025;-70
2023/03/01 15:13:35;;;;;;;5.20;2.80;;;;;;;;;;10395604;28;20114;-62
2023/03/01 15:18:36;;;;;;;4.95;2.95;;;;;;;;;;10411820;28;20121;-62
2023/03/01 15:23:39;;;;;;;6.40;3.10;;;;;;;;;;10394597;28;20017;-62
2023/03/01 15:28:48;;;;;;;5.60;3.38;;;;;;;;;;10411923;28;20037;-62
2023/03/01 15:33:50;;;;;;;5.88;3.08;;;;;;;;;;10411293;28;20373;-62
2023/03/01 15:38:56;;;;;;;6.47;2.90;;;;;;;;;;10411361;28;20026;-62
2023/03/01 15:43:59;;;;;;;7.75;3.30;;;;;;;;;;10410456;28;20037;-61
2023/03/01 15:49:04;;;;;;;7.43;2.78;;;;;;;;;;10411054;28;20473;-61
2023/03/01 15:54:19;;;;;;;5.07;3.10;;;;;;;;;;10410795;28;20568;-62
2023/03/01 15:59:21;;;;;;;7.53;2.92;;;;;;;;;;10402362;28;20029;-62
2023/03/01 16:04:22;;;;;;;5.97;2.92;;;;;;;;;;10410127;28;20443;-62
2023/03/01 16:09:24;;;;;;;10.25;3.13;;;;;;;;;;10409399;28;20037;-62
2023/03/01 16:14:25;;;;;;;6.57;2.47;;;;;;;;;;10410232;28;20052;-62
2023/03/01 16:19:26;;;;;;;7.63;3.03;;;;;;;;;;10409811;28;20095;-62
2023/03/01 16:24:26;;;;;;;8.98;2.97;;;;;;;;;;10409174;28;20029;-62
2023/03/01 16:29:28;;;;;;;3.22;2.40;;;;;;;;;;10409270;28;20030;-61
2023/03/01 16:34:29;;;;;;;4.97;2.63;;;;;;;;;;10409322;28;20052;-61
2023/03/01 16:39:30;;;;;;;4.68;2.72;;;;;;;;;;10409446;28;20099;-62
2023/03/01 16:44:30;;;;;;;2.75;2.45;;;;;;;;;;10408634;28;20034;-61
2023/03/01 16:49:31;;;;;;;4.97;2.63;;;;;;;;;;10408699;28;20021;-62
2023/03/01 16:54:31;;;;;;;3.65;2.40;;;;;;;;;;10408406;28;20161;-66
2023/03/01 16:59:32;;;;;;;5.22;2.90;;;;;;;;;;10413741;28;20026;-62
2023/03/01 17:04:32;;;;;;;4.85;2.83;;;;;;;;;;10422435;28;20261;-62
2023/03/01 17:09:37;;;;;;;3.92;2.50;;;;;;;;;;10421848;28;20032;-61
2023/03/01 17:14:38;;;;;;;3.60;2.60;;;;;;;;;;10422183;28;20041;-62
2023/03/01 17:19:41;;;;;;;4.88;2.70;;;;;;;;;;10421574;28;20108;-62
2023/03/01 17:24:43;;;;;;;4.38;2.70;;;;;;;;;;10421609;28;20076;-64
2023/03/01 17:29:43;;;;;;;5.10;3.00;;;;;;;;;;10421688;28;20021;-62
2023/03/01 17:34:45;;;;;;;5.82;2.72;;;;;;;;;;10421841;28;20461;-62
2023/03/01 17:39:45;;;;;;;3.40;2.53;;;;;;;;;;10421932;28;20300;-62
2023/03/01 17:44:46;;;;;;;2.38;1.88;;;;;;;;;;10421149;28;20323;-61
2023/03/01 17:49:46;;;;;;;2.85;2.55;;;;;;;;;;10420619;28;20040;-61
2023/03/01 17:54:47;;;;;;;4.65;2.75;;;;;;;;;;10420170;28;20087;-58
2023/03/01 17:59:48;;;;;;;3.45;2.65;;;;;;;;;;10421493;28;20030;-58
2023/03/01 18:04:48;;;;;;;4.22;2.45;;;;;;;;;;10420360;28;20437;-58
2023/03/01 18:09:49;;;;;;;4.30;2.88;;;;;;;;;;10418966;28;20033;-57
2023/03/01 18:14:52;;;;;;;3.30;2.53;;;;;;;;;;10413672;28;20037;-57
2023/03/01 18:19:55;;;;;;;5.20;2.85;;;;;;;;;;10414587;28;20022;-57
2023/03/01 18:24:55;;;;;;;4.40;2.25;;;;;;;;;;10414465;28;20069;-57
2023/03/01 18:29:56;;;;;;;5.13;2.78;;;;;;;;;;10413727;28;20026;-57
2023/03/01 18:34:57;;;;;;;2.88;2.20;;;;;;;;;;10412792;28;20034;-57
2023/03/01 18:39:57;;;;;;;4.80;2.80;;;;;;;;;;10412847;28;20025;-58
2023/03/01 18:44:58;;;;;;;3.80;2.50;;;;;;;;;;10411895;28;20064;-58
2023/03/01 18:49:58;;;;;;;3.88;2.38;;;;;;;;;;10411746;28;20036;-58
2023/03/01 18:54:59;;;;;;;4.68;2.72;;;;;;;;;;10412563;28;20087;-59
2023/03/01 18:59:59;;;;;;;3.15;2.50;;;;;;;;;;10413438;28;20040;-57
2023/03/01 19:05:00;;;;;;;3.10;2.28;;;;;;;;;;10412133;28;20037;-58
2023/03/01 19:10:01;;;;;;;2.90;2.50;;;;;;;;;;10412509;28;20466;-58
2023/03/01 19:15:03;;;;;;;8.77;2.40;;;;;;;;;;10411565;28;20029;-57
2023/03/01 19:20:05;;;;;;;16.27;2.75;;;;;;;;;;10411250;28;20502;-57
2023/03/01 19:25:06;;;;;;;24.98;3.10;;;;;;;;;;10410924;28;20029;-58
2023/03/01 19:30:08;;;;;;;11.93;2.60;;;;;;;;;;10410868;28;20033;-57
2023/03/01 19:35:08;;;;;;;5.20;2.53;;;;;;;;;;10411137;28;20022;-58
2023/03/01 19:40:10;;;;;;;11.90;2.85;;;;;;;;;;10411643;28;20029;-57
2023/03/01 19:45:10;;;;;;;8.85;3.25;;;;;;;;;;10449371;23;20053;-68
2023/03/01 19:50:12;;;;;;;5.82;3.00;;;;;;;;;;10452100;28;20036;-59
2023/03/01 19:55:13;;;;;;;7.35;3.00;;;;;;;;;;10451407;28;20035;-60
2023/03/01 20:00:15;;;;;;;6.95;2.85;;;;;;;;;;10451299;28;20037;-62
2023/03/01 20:05:16;;;;;;;4.53;2.70;;;;;;;;;;10451281;28;20449;-62
2023/03/01 20:10:17;;;;;;;5.90;3.28;;;;;;;;;;10450972;28;20021;-63
2023/03/01 20:15:18;;;;;;;10.10;2.75;;;;;;;;;;10450846;28;20094;-67
2023/03/01 20:20:19;;;;;;;6.88;2.85;;;;;;;;;;10450720;28;20048;-55
2023/03/01 20:25:20;;;;;;;6.22;2.70;;;;;;;;;;10450653;28;20447;-55
2023/03/01 20:30:20;;;;;;;8.77;3.03;;;;;;;;;;10450362;28;20045;-55
2023/03/01 20:35:22;;;;;;;4.38;2.58;;;;;;;;;;10449339;28;20042;-55
2023/03/01 20:40:26;;;;;;;5.13;2.88;;;;;;;;;;10450995;28;20021;-57
2023/03/01 20:45:27;;;;;;;5.57;2.60;;;;;;;;;;10450232;28;20127;-55
2023/03/01 20:50:28;;;;;;;4.32;2.90;;;;;;;;;;10450396;28;20556;-55
2023/03/01 20:55:28;;;;;;;6.43;2.95;;;;;;;;;;10449583;28;20048;-54
2023/03/01 21:00:29;;;;;;;3.10;2.40;;;;;;;;;;10449502;28;20033;-57
2023/03/01 21:05:30;;;;;;;7.30;2.60;;;;;;;;;;10449440;28;20032;-55
2023/03/01 21:10:32;;;;;;;3.50;2.50;;;;;;;;;;10449987;28;20064;-55
2023/03/01 21:15:32;;;;;;;6.47;2.90;;;;;;;;;;10444050;28;20108;-60
2023/03/01 21:20:33;;;;;;;5.25;2.50;;;;;;;;;;10448368;28;20391;-64
2023/03/01 21:25:33;;;;;;;5.65;2.67;;;;;;;;;;10449192;28;20415;-56
2023/03/01 21:30:34;;;;;;;7.65;2.78;;;;;;;;;;10449405;28;20048;-56
2023/03/01 21:35:35;;;;;;;5.05;2.47;;;;;;;;;;10449689;28;20029;-57
2023/03/01 21:40:36;;;;;;;4.05;2.97;;;;;;;;;;10449071;28;20021;-57
2023/03/01 21:45:36;;;;;;;4.30;2.53;;;;;;;;;;10450462;28;20120;-58
2023/03/01 21:50:37;;;;;;;4.88;2.65;;;;;;;;;;10456355;28;20562;-57
2023/03/01 21:55:46;;;;;;;5.22;2.80;;;;;;;;;;10456344;28;20029;-56
2023/03/01 22:00:47;;;;;;;5.30;2.80;;;;;;;;;;10456061;28;20461;-61
2023/03/01 22:05:59;;;;;;;2.85;2.50;;;;;;;;;;10455900;28;20029;-57
2023/03/01 22:11:01;;;;;;;7.00;2.78;;;;;;;;;;10456378;28;20024;-57
2023/03/01 22:16:02;;;;;;;4.50;2.85;;;;;;;;;;10451827;28;20036;-56
2023/03/01 22:21:07;;;;;;;2.78;2.53;;;;;;;;;;10433683;28;20032;-66
2023/03/01 22:26:36;;;;;;;9.40;2.55;;;;;;;;;;10455606;28;20108;-57
2023/03/01 22:31:37;;;;;;;2.88;2.25;;;;;;;;;;10440119;28;20032;-57
2023/03/01 22:36:38;;;;;;;9.13;2.60;;;;;;;;;;10453500;28;20032;-56
2023/03/01 22:41:42;;;;;;;5.03;2.45;;;;;;;;;;10453554;28;20030;-56
2023/03/01 22:46:43;;;;;;;4.63;2.28;;;;;;;;;;10453033;28;20447;-58
2023/03/01 22:51:46;;;;;;;5.85;3.00;;;;;;;;;;10453269;28;20079;-54
2023/03/01 22:56:47;;;;;;;4.47;2.63;;;;;;;;;;10453658;28;20043;-56
2023/03/01 23:01:48;;;;;;;4.03;2.55;;;;;;;;;;10453469;28;20029;-57
2023/03/01 23:06:50;;;;;;;5.68;2.40;;;;;;;;;;10452249;28;20059;-55
2023/03/01 23:11:52;;;;;;;3.20;2.58;;;;;;;;;;10453715;28;20029;-56
2023/03/01 23:16:53;;;;;;;4.80;2.47;;;;;;;;;;10453532;28;20025;-55
2023/03/01 23:21:53;;;;;;;3.33;2.58;;;;;;;;;;10453667;28;20064;-54
2023/03/01 23:26:54;;;;;;;4.68;2.60;;;;;;;;;;10453402;28;20029;-55
2023/03/01 23:31:56;;;;;;;5.50;2.90;;;;;;;;;;10452721;28;20418;-55
2023/03/01 23:36:57;;;;;;;4.05;2.33;;;;;;;;;;10452874;28;20036;-56
2023/03/01 23:41:57;;;;;;;4.25;2.63;;;;;;;;;;10452560;28;20396;-56
2023/03/01 23:46:58;;;;;;;3.00;2.22;;;;;;;;;;10452084;28;20130;-56
2023/03/01 23:52:00;;;;;;;3.70;2.55;;;;;;;;;;10452273;28;20083;-55
2023/03/01 23:57:00;;;;;;;3.03;2.25;;;;;;;;;;10452237;28;20032;-52
